Time;durP1;ratioP1;P1;durP2;ratioP2;P2;SDS_P1;SDS_P2;PMS_P1;PMS_P2;Temp;Humidity;BMP_temperature;BMP_pressure;BME280_temperature;BME280_humidity;BME280_pressure;Samples;Min_cycle;Max_cycle;Signal;HPM_P1;HPM_P2
2024/04/05 00:00:14;;;;;;;4.80;1.40;;;;;;;11.73;100.00;95800.13;5058194;28;20196;-86
2024/04/05 00:02:41;;;;;;;2.97;1.13;;;;;;;11.75;100.00;95792.78;5058253;28;20269;-85
2024/04/05 00:05:09;;;;;;;3.73;1.20;;;;;;;11.69;100.00;95785.75;5059075;28;20598;-85
2024/04/05 00:07:36;;;;;;;2.70;1.43;;;;;;;11.69;100.00;95791.03;5057690;28;20258;-85
2024/04/05 00:10:03;;;;;;;3.00;1.30;;;;;;;11.59;100.00;95788.88;5058262;28;20309;-86
2024/04/05 00:12:29;;;;;;;4.47;1.60;;;;;;;11.59;100.00;95788.06;5058469;28;20193;-85
2024/04/05 00:14:55;;;;;;;4.43;1.20;;;;;;;11.59;100.00;95778.31;5059723;28;20190;-85
2024/04/05 00:17:23;;;;;;;3.80;1.57;;;;;;;11.63;100.00;95783.94;5057989;28;20259;-85
2024/04/05 00:19:49;;;;;;;2.57;1.40;;;;;;;11.65;100.00;95780.06;5057932;28;20196;-86
2024/04/05 00:22:15;;;;;;;3.33;1.63;;;;;;;11.60;100.00;95785.19;5059706;28;20247;-85
2024/04/05 00:24:42;;;;;;;3.93;1.70;;;;;;;11.67;100.00;95778.03;5057778;28;20201;-87
2024/04/05 00:27:08;;;;;;;3.60;1.93;;;;;;;11.60;100.00;95785.19;5058253;28;20669;-86
2024/04/05 00:29:36;;;;;;;3.30;1.40;;;;;;;11.59;100.00;95785.41;5057766;28;20219;-86
2024/04/05 00:32:02;;;;;;;4.27;1.60;;;;;;;11.60;100.00;95774.63;5060101;28;20189;-86
2024/04/05 00:34:30;;;;;;;4.43;1.73;;;;;;;11.49;100.00;95774.56;5058162;28;20190;-86
2024/04/05 00:36:56;;;;;;;3.30;1.60;;;;;;;11.65;100.00;95763.41;5059774;28;20678;-86
2024/04/05 00:39:23;;;;;;;4.80;1.60;;;;;;;11.63;100.00;95766.28;5057758;28;20216;-85
2024/04/05 00:41:49;;;;;;;2.43;1.80;;;;;;;11.62;100.00;95756.75;5059285;28;20194;-86
2024/04/05 00:44:15;;;;;;;2.40;1.50;;;;;;;11.54;100.00;95758.88;5058348;28;20202;-85
2024/04/05 00:46:42;;;;;;;3.77;1.60;;;;;;;11.51;100.00;95752.22;5060409;28;20210;-86
2024/04/05 00:49:09;;;;;;;7.43;1.80;;;;;;;11.45;100.00;95755.75;5058512;28;20204;-85
2024/04/05 00:51:36;;;;;;;4.53;1.50;;;;;;;11.41;100.00;95765.09;5060488;28;20213;-86
2024/04/05 00:54:03;;;;;;;3.90;1.63;;;;;;;11.47;100.00;95764.25;5059442;28;20246;-86
2024/04/05 00:56:29;;;;;;;2.30;1.30;;;;;;;11.38;100.00;95764.75;5059124;28;20731;-86
2024/04/05 00:58:56;;;;;;;2.23;1.27;;;;;;;11.38;100.00;95770.03;5060312;28;20189;-86
2024/04/05 01:01:22;;;;;;;2.87;1.50;;;;;;;11.36;100.00;95759.72;5060964;28;20212;-86
2024/04/05 01:03:49;;;;;;;2.40;1.57;;;;;;;11.46;100.00;95761.84;5058456;28;20722;-86
2024/04/05 01:06:15;;;;;;;3.33;1.40;;;;;;;11.47;100.00;95766.06;5060351;28;20190;-86
2024/04/05 01:08:44;;;;;;;2.80;1.50;;;;;;;11.37;100.00;95771.84;5058837;28;20554;-86
2024/04/05 01:11:09;;;;;;;3.57;1.73;;;;;;;11.38;100.00;95770.84;5059447;28;20209;-86
2024/04/05 01:13:36;;;;;;;2.27;1.60;;;;;;;11.41;100.00;95756.41;5060153;28;20227;-86
2024/04/05 01:16:06;;;;;;;5.47;1.53;;;;;;;11.38;100.00;95757.66;5060675;28;20649;-86
2024/04/05 01:18:33;;;;;;;5.57;1.60;;;;;;;11.25;100.00;95778.09;5061081;28;20196;-86
2024/04/05 01:20:59;;;;;;;3.37;1.47;;;;;;;11.21;100.00;95761.06;5059586;28;20193;-86
2024/04/05 01:23:26;;;;;;;2.57;1.30;;;;;;;11.23;100.00;95766.91;5060765;28;20794;-86
2024/04/05 01:25:53;;;;;;;6.63;1.63;;;;;;;11.23;100.00;95778.28;5060062;28;20248;-86
2024/04/05 01:28:20;;;;;;;6.50;1.80;;;;;;;11.28;100.00;95772.34;5059966;28;20510;-86
2024/04/05 01:30:46;;;;;;;2.53;1.70;;;;;;;11.33;100.00;95765.41;5060682;28;20217;-86
2024/04/05 01:33:13;;;;;;;5.13;1.70;;;;;;;11.34;100.00;95764.38;5063757;28;20247;-85
2024/04/05 01:35:38;;;;;;;3.50;1.80;;;;;;;11.23;100.00;95766.91;5066848;28;20197;-85
2024/04/05 01:38:05;;;;;;;5.10;1.80;;;;;;;11.13;100.00;95761.38;5059736;28;20217;-85
2024/04/05 01:40:31;;;;;;;3.90;1.70;;;;;;;11.10;100.00;95766.06;5057427;28;20197;-86
2024/04/05 01:42:59;;;;;;;3.93;1.97;;;;;;;11.10;100.00;95767.88;5056968;28;20747;-86
2024/04/05 01:45:25;;;;;;;3.83;2.00;;;;;;;11.12;100.00;95765.81;5058783;28;20186;-86
2024/04/05 01:47:52;;;;;;;3.40;2.37;;;;;;;11.06;100.00;95762.22;5057800;28;20209;-86
2024/04/05 01:50:18;;;;;;;7.93;2.20;;;;;;;10.98;100.00;95754.59;5057929;28;20232;-86
2024/04/05 01:52:47;;;;;;;5.63;1.73;;;;;;;11.00;100.00;95746.47;5059162;28;20189;-86
2024/04/05 01:55:13;;;;;;;4.70;2.30;;;;;;;11.07;100.00;95749.84;5055194;28;20625;-85
2024/04/05 01:57:40;;;;;;;5.40;2.37;;;;;;;11.07;100.00;95755.13;5055646;28;20221;-85
2024/04/05 02:00:08;;;;;;;3.90;1.90;;;;;;;11.05;100.00;95765.06;5057217;28;20189;-85
2024/04/05 02:02:35;;;;;;;4.47;2.33;;;;;;;11.09;100.00;95764.44;5055952;28;20193;-86
2024/04/05 02:05:00;;;;;;;5.07;2.73;;;;;;;11.09;100.00;95751.25;5057427;28;20190;-85
2024/04/05 02:07:27;;;;;;;3.93;2.10;;;;;;;11.03;100.00;95751.31;5055913;28;20262;-86
2024/04/05 02:09:53;;;;;;;5.10;2.47;;;;;;;11.04;100.00;95739.72;5056179;28;20181;-85
2024/04/05 02:12:21;;;;;;;5.47;2.50;;;;;;;10.90;100.00;95757.50;5055758;28;20657;-86
2024/04/05 02:14:47;;;;;;;5.83;2.40;;;;;;;10.93;100.00;95758.91;5056050;28;20543;-86
2024/04/05 02:17:15;;;;;;;4.20;2.50;;;;;;;10.96;100.00;95750.56;5055871;28;20263;-85
2024/04/05 02:19:41;;;;;;;4.77;2.43;;;;;;;10.92;100.00;95752.03;5056460;28;20239;-85
2024/04/05 02:22:08;;;;;;;5.97;2.60;;;;;;;10.86;100.00;95744.97;5057091;28;20190;-86
2024/04/05 02:24:34;;;;;;;5.93;1.90;;;;;;;10.85;100.00;95743.38;5055717;28;20251;-86
2024/04/05 02:27:01;;;;;;;3.13;2.07;;;;;;;10.88;100.00;95743.75;5057347;28;20573;-86
2024/04/05 02:29:27;;;;;;;4.90;2.40;;;;;;;10.98;100.00;95743.25;5057640;28;20185;-85
2024/04/05 02:31:54;;;;;;;4.30;2.00;;;;;;;10.93;100.00;95753.63;5056458;28;20221;-86
2024/04/05 02:34:21;;;;;;;3.03;2.07;;;;;;;10.91;100.00;95756.50;5055785;28;20271;-86
2024/04/05 02:36:50;;;;;;;3.93;2.20;;;;;;;10.94;100.00;95756.06;5056063;28;20224;-86
2024/04/05 02:39:16;;;;;;;5.07;2.30;;;;;;;10.93;100.00;95756.25;5057963;28;20186;-85
2024/04/05 02:41:45;;;;;;;3.33;2.43;;;;;;;11.03;100.00;95754.75;5058315;28;20719;-85
2024/04/05 02:44:11;;;;;;;3.67;2.20;;;;;;;11.00;100.00;95759.66;5056414;28;20198;-85
2024/04/05 02:46:38;;;;;;;2.30;2.10;;;;;;;10.98;100.00;95748.53;5058306;28;20205;-86
2024/04/05 02:49:03;;;;;;;7.87;2.50;;;;;;;10.93;100.00;95761.53;5056822;28;20516;-86
2024/04/05 02:51:31;;;;;;;4.47;2.20;;;;;;;10.96;100.00;95750.56;5056731;28;20274;-86
2024/04/05 02:53:57;;;;;;;3.93;2.30;;;;;;;10.96;100.00;95755.84;5056023;28;20225;-85
2024/04/05 02:56:24;;;;;;;74.20;46.70;;;;;;;10.96;100.00;95758.47;5056934;28;20225;-86
2024/04/05 02:58:50;;;;;;;17.20;9.50;;;;;;;10.98;100.00;95746.69;5056778;28;20193;-86
2024/04/05 03:01:17;;;;;;;9.73;6.07;;;;;;;10.99;100.00;95758.06;5058776;28;20218;-86
2024/04/05 03:03:43;;;;;;;4.60;2.67;;;;;;;10.94;100.00;95757.88;5060649;28;20193;-86
2024/04/05 03:06:09;;;;;;;8.43;2.43;;;;;;;10.95;100.00;95755.03;5061476;28;20200;-85
2024/04/05 03:08:36;;;;;;;2.87;2.13;;;;;;;11.00;100.00;95757.81;5063123;28;20185;-85
2024/04/05 03:11:04;;;;;;;1.80;1.50;;;;;;;10.95;100.00;95756.84;5063138;28;20214;-86
2024/04/05 03:13:29;;;;;;;3.00;1.50;;;;;;;10.95;100.00;95756.84;5062180;28;20243;-85
2024/04/05 03:15:56;;;;;;;4.63;2.07;;;;;;;10.97;100.00;95752.16;5061141;28;20200;-85
2024/04/05 03:18:22;;;;;;;2.60;1.80;;;;;;;11.02;100.00;95747.88;5063189;28;20256;-86
2024/04/05 03:20:49;;;;;;;3.33;1.80;;;;;;;10.99;100.00;95755.41;5061867;28;20205;-85
2024/04/05 03:23:15;;;;;;;8.83;2.00;;;;;;;10.90;100.00;95751.41;5063954;28;20186;-86
2024/04/05 03:25:43;;;;;;;6.07;1.90;;;;;;;10.92;100.00;95744.91;5061970;28;20193;-85
2024/04/05 03:28:09;;;;;;;3.77;1.93;;;;;;;10.98;100.00;95737.97;5061910;28;20244;-85
2024/04/05 03:30:36;;;;;;;4.13;2.13;;;;;;;11.02;100.00;95737.31;5062180;28;20217;-85
2024/04/05 03:33:02;;;;;;;6.23;2.30;;;;;;;11.03;100.00;95735.50;5062155;28;20239;-86
2024/04/05 03:35:29;;;;;;;8.07;2.30;;;;;;;11.03;100.00;95740.78;5062857;28;20696;-85
2024/04/05 03:37:56;;;;;;;3.43;2.07;;;;;;;10.90;100.00;95738.25;5064615;28;20263;-84
2024/04/05 03:40:23;;;;;;;4.70;2.00;;;;;;;10.87;100.00;95728.97;5060182;28;20201;-85
2024/04/05 03:42:52;;;;;;;4.47;2.00;;;;;;;10.91;100.00;95722.22;5059366;28;20216;-85
2024/04/05 03:45:17;;;;;;;5.17;2.17;;;;;;;10.92;100.00;95723.03;5060467;28;20192;-85
2024/04/05 03:47:44;;;;;;;5.03;1.70;;;;;;;10.97;100.00;95725.81;5058952;28;20586;-86
2024/04/05 03:50:10;;;;;;;3.80;2.27;;;;;;;11.01;100.00;95727.00;5058597;28;20201;-86
2024/04/05 03:52:37;;;;;;;4.40;1.90;;;;;;;10.95;100.00;95743.66;5059311;28;20229;-85
2024/04/05 03:55:04;;;;;;;3.97;1.90;;;;;;;10.83;100.00;95748.03;5060566;28;20245;-85
2024/04/05 03:57:31;;;;;;;4.37;1.70;;;;;;;10.68;100.00;95751.03;5059437;28;20220;-85
2024/04/05 03:59:59;;;;;;;3.13;1.93;;;;;;;10.79;100.00;95750.31;5059479;28;20409;-85
2024/04/05 04:02:25;;;;;;;4.97;1.70;;;;;;;10.80;100.00;95751.94;5059386;28;20194;-85
2024/04/05 04:04:51;;;;;;;2.43;1.83;;;;;;;10.88;100.00;95759.53;5061401;28;20190;-85
2024/04/05 04:07:18;;;;;;;2.73;2.10;;;;;;;10.84;100.00;95757.56;5061153;28;20590;-85
2024/04/05 04:09:46;;;;;;;3.43;1.80;;;;;;;10.86;100.00;95752.88;5061304;28;20193;-86
2024/04/05 04:12:14;;;;;;;4.43;1.87;;;;;;;10.75;100.00;95750.97;5059203;28;20205;-85
2024/04/05 04:14:40;;;;;;;3.43;2.00;;;;;;;10.73;100.00;95755.63;5059348;28;20228;-86
2024/04/05 04:17:08;;;;;;;3.17;2.87;;;;;;;10.78;100.00;95747.91;5060538;28;20216;-86
2024/04/05 04:19:34;;;;;;;2.67;1.70;;;;;;;10.69;100.00;95742.06;5062230;28;20264;-85
2024/04/05 04:22:01;;;;;;;2.53;1.77;;;;;;;10.67;100.00;95746.75;5060583;28;20594;-85
2024/04/05 04:24:27;;;;;;;3.87;2.10;;;;;;;10.33;100.00;95745.41;5060277;28;20190;-86
2024/04/05 04:26:54;;;;;;;4.50;1.83;;;;;;;10.49;100.00;95738.00;5060748;28;20619;-85
2024/04/05 04:29:19;;;;;;;5.10;2.30;;;;;;;10.59;100.00;95743.59;5062474;28;20186;-86
2024/04/05 04:31:46;;;;;;;3.90;1.93;;;;;;;10.47;100.00;95740.84;5061361;28;20635;-85
2024/04/05 04:34:13;;;;;;;3.07;2.43;;;;;;;10.32;100.00;95746.41;5061700;28;20190;-85
2024/04/05 04:36:40;;;;;;;3.23;2.10;;;;;;;10.34;100.00;95748.81;5061412;28;20225;-86
2024/04/05 04:39:08;;;;;;;2.97;2.00;;;;;;;10.42;100.00;95753.84;5062493;28;20189;-86
2024/04/05 04:41:35;;;;;;;2.10;1.73;;;;;;;10.41;100.00;95745.13;5060760;28;20196;-86
2024/04/05 04:44:01;;;;;;;4.53;2.00;;;;;;;10.38;100.00;95745.53;5059837;28;20255;-86
2024/04/05 04:46:28;;;;;;;3.63;1.83;;;;;;;10.31;100.00;95754.53;5060843;28;20253;-86
2024/04/05 04:48:56;;;;;;;3.60;2.00;;;;;;;10.36;100.00;95754.72;5065505;28;20642;-85
2024/04/05 04:51:24;;;;;;;4.43;3.03;;;;;;;10.33;100.00;95750.66;5064346;28;20212;-86
2024/04/05 04:53:50;;;;;;;4.97;2.57;;;;;;;10.39;100.00;95755.06;5057961;28;20257;-85
2024/04/05 04:56:17;;;;;;;4.10;2.33;;;;;;;10.31;100.00;95747.44;5058120;28;20654;-85
2024/04/05 04:58:43;;;;;;;5.83;2.33;;;;;;;10.22;100.00;95750.53;5058314;28;20246;-85
2024/04/05 05:01:10;;;;;;;3.60;2.50;;;;;;;10.12;100.00;95758.09;5060102;28;20247;-86
2024/04/05 05:03:36;;;;;;;3.37;1.97;;;;;;;10.24;100.00;95759.03;5058133;28;20194;-85
2024/04/05 05:06:03;;;;;;;2.53;2.20;;;;;;;10.29;100.00;95765.25;5060168;28;20593;-86
2024/04/05 05:08:30;;;;;;;3.70;2.10;;;;;;;10.33;100.00;95770.91;5059068;28;20212;-86
2024/04/05 05:10:57;;;;;;;5.77;2.17;;;;;;;10.25;100.00;95771.97;5059044;28;20218;-85
2024/04/05 05:13:23;;;;;;;2.13;1.93;;;;;;;10.32;100.00;95779.81;5059752;28;20653;-86
2024/04/05 05:15:50;;;;;;;4.40;2.00;;;;;;;10.25;100.00;95774.59;5060038;28;20216;-86
2024/04/05 05:18:16;;;;;;;5.90;2.67;;;;;;;10.28;100.00;95768.94;5059812;28;20617;-85
2024/04/05 05:20:46;;;;;;;3.00;2.03;;;;;;;10.11;100.00;95759.91;5060729;28;20211;-86
2024/04/05 05:23:12;;;;;;;3.10;2.13;;;;;;;10.13;100.00;95764.94;5059003;28;20284;-86
2024/04/05 05:25:40;;;;;;;5.03;2.47;;;;;;;9.92;100.00;95771.31;5058995;28;20217;-85
2024/04/05 05:28:06;;;;;;;3.33;2.40;;;;;;;10.18;100.00;95768.56;5059132;28;20264;-85
2024/04/05 05:30:33;;;;;;;4.03;2.50;;;;;;;10.08;100.00;95757.66;5059833;28;20197;-85
2024/04/05 05:32:58;;;;;;;2.73;2.53;;;;;;;10.30;100.00;95751.09;5058957;28;20201;-86
2024/04/05 05:35:25;;;;;;;3.30;2.20;;;;;;;10.30;100.00;95748.44;5058512;28;20598;-86
2024/04/05 05:37:51;;;;;;;4.10;2.00;;;;;;;10.13;100.00;95743.91;5058359;28;20213;-85
2024/04/05 05:40:19;;;;;;;3.30;2.10;;;;;;;10.02;100.00;95750.63;5059669;28;20208;-85
2024/04/05 05:42:46;;;;;;;2.80;1.80;;;;;;;10.01;100.00;95751.63;5059554;28;20711;-86
2024/04/05 05:45:14;;;;;;;3.70;2.37;;;;;;;10.02;100.00;95760.34;5059999;28;20232;-86
2024/04/05 05:47:40;;;;;;;2.23;1.80;;;;;;;10.17;100.00;95759.09;5061464;28;20236;-86
2024/04/05 05:50:09;;;;;;;3.37;1.97;;;;;;;10.24;100.00;95759.03;5060959;28;20194;-86
2024/04/05 05:52:35;;;;;;;6.17;2.33;;;;;;;10.29;100.00;95756.56;5059790;28;20275;-86
2024/04/05 05:55:02;;;;;;;3.60;2.40;;;;;;;10.38;100.00;95756.06;5059164;28;20197;-85
2024/04/05 05:57:27;;;;;;;7.63;3.13;;;;;;;10.49;100.00;95761.69;5060647;28;20273;-86
2024/04/05 05:59:56;;;;;;;8.23;3.13;;;;;;;10.57;100.00;95761.44;5059948;28;20190;-85
2024/04/05 06:02:21;;;;;;;4.37;3.97;;;;;;;10.43;100.00;95763.38;5061117;28;20193;-85
2024/04/05 06:04:48;;;;;;;4.20;2.47;;;;;;;10.58;100.00;95768.31;5060197;28;20654;-86
2024/04/05 06:07:14;;;;;;;5.87;2.80;;;;;;;10.45;100.00;95784.22;5059809;28;20214;-86
2024/04/05 06:09:49;;;;;;;6.07;3.00;;;;;;;10.48;100.00;95781.16;5060918;28;20204;-86
2024/04/05 06:12:15;;;;;;;5.10;2.70;;;;;;;10.58;100.00;95787.56;5061635;28;20243;-86
2024/04/05 06:14:42;;;;;;;8.23;3.50;;;;;;;10.49;100.00;95786.19;5061046;28;20193;-86
2024/04/05 06:17:10;;;;;;;5.40;2.97;;;;;;;10.52;100.00;95784.97;5062200;28;20225;-85
2024/04/05 06:19:38;;;;;;;9.13;3.73;;;;;;;10.52;100.00;95790.25;5062087;28;20208;-86
2024/04/05 06:22:04;;;;;;;5.70;4.57;;;;;;;10.61;100.00;95784.50;5062044;28;20589;-86
2024/04/05 06:24:31;;;;;;;9.00;3.30;;;;;;;10.65;100.00;95780.41;5061608;28;20231;-86
2024/04/05 06:26:57;;;;;;;4.97;3.20;;;;;;;10.72;100.00;95777.72;5061394;28;20228;-88
2024/04/05 06:29:23;;;;;;;5.80;3.20;;;;;;;10.84;100.00;95768.09;5060773;28;20193;-86
2024/04/05 06:31:49;;;;;;;4.27;2.97;;;;;;;11.00;100.00;95762.28;5061168;28;20225;-85
2024/04/05 06:34:18;;;;;;;4.50;2.70;;;;;;;11.19;100.00;95761.28;5063322;28;20190;-85
2024/04/05 06:36:45;;;;;;;3.90;2.93;;;;;;;11.36;100.00;95749.16;5059361;28;20577;-86
2024/04/05 06:39:12;;;;;;;2.90;2.20;;;;;;;11.48;100.00;95749.22;5061661;28;20292;-85
2024/04/05 06:41:38;;;;;;;3.10;2.20;;;;;;;11.77;100.00;95744.03;5060867;28;20595;-86
2024/04/05 06:44:05;;;;;;;4.53;1.93;;;;;;;11.85;100.00;95740.28;5062313;28;20185;-86
2024/04/05 06:46:31;;;;;;;2.03;1.80;;;;;;;11.98;100.00;95747.22;5062788;28;20205;-86
2024/04/05 06:48:57;;;;;;;4.23;1.50;;;;;;;12.03;100.00;95736.78;5061927;28;20206;-85
2024/04/05 06:51:25;;;;;;;5.30;1.90;;;;;;;12.16;100.00;95741.91;5062395;28;20339;-86
2024/04/05 06:53:51;;;;;;;5.63;1.80;;;;;;;12.18;100.00;95735.34;5060825;28;20200;-86
2024/04/05 06:56:17;;;;;;;3.27;1.97;;;;;;;12.37;100.00;95741.38;5064221;28;20601;-86
2024/04/05 06:58:44;;;;;;;5.80;2.60;;;;;;;12.47;100.00;95744.28;5063304;28;20216;-86
2024/04/05 07:01:10;;;;;;;6.90;4.03;;;;;;;12.53;100.00;95738.13;5062354;28;20193;-86
2024/04/05 07:03:37;;;;;;;15.23;8.83;;;;;;;12.64;100.00;95742.59;5060278;28;20220;-86
2024/04/05 07:06:03;;;;;;;12.20;7.03;;;;;;;12.63;100.00;95745.44;5061940;28;20235;-86
2024/04/05 07:08:32;;;;;;;11.80;6.43;;;;;;;12.71;100.00;95748.59;5061097;28;20196;-86
2024/04/05 07:10:58;;;;;;;8.67;4.67;;;;;;;12.75;100.00;95743.63;5060023;28;20592;-87
2024/04/05 07:13:25;;;;;;;3.87;2.20;;;;;;;12.66;100.00;95747.66;5061051;28;20201;-86
2024/04/05 07:15:51;;;;;;;3.40;1.53;;;;;;;12.76;100.00;95743.44;5060579;28;20193;-87
2024/04/05 07:18:22;;;;;;;4.53;1.50;;;;;;;12.83;100.00;95736.19;5061029;28;20209;-87
2024/04/05 07:20:49;;;;;;;4.57;1.93;;;;;;;12.79;100.00;95737.66;5061275;28;20599;-86
2024/04/05 07:23:14;;;;;;;7.83;2.00;;;;;;;12.96;100.00;95730.69;5061285;28;20204;-87
2024/04/05 07:25:42;;;;;;;5.07;2.03;;;;;;;13.21;100.00;95727.81;5061557;28;20189;-86
2024/04/05 07:28:08;;;;;;;3.00;1.50;;;;;;;13.39;100.00;95727.69;5062469;28;20217;-87
2024/04/05 07:30:36;;;;;;;3.63;1.50;;;;;;;13.52;100.00;95721.34;5057533;28;20185;-87
2024/04/05 07:33:02;;;;;;;4.83;1.27;;;;;;;13.51;100.00;95717.88;5063266;28;20271;-87
2024/04/05 07:35:29;;;;;;;4.07;1.27;;;;;;;13.49;100.00;95716.53;5063948;28;20189;-87
2024/04/05 07:37:55;;;;;;;3.27;1.30;;;;;;;13.64;100.00;95735.34;5063730;28;20205;-87
2024/04/05 07:40:22;;;;;;;4.77;1.40;;;;;;;13.60;100.00;95736.88;5067062;28;20194;-86
2024/04/05 07:42:51;;;;;;;2.30;1.07;;;;;;;13.77;100.00;95724.47;5075187;28;20771;-85
2024/04/05 07:45:19;;;;;;;2.03;1.10;;;;;;;13.62;100.00;95737.44;5069524;28;20197;-86
2024/04/05 07:47:47;;;;;;;2.30;1.00;;;;;;;13.49;100.00;95738.47;5058920;28;20209;-86
2024/04/05 07:50:14;;;;;;;1.23;1.13;;;;;;;13.52;100.00;95739.84;5059839;28;20285;-86
2024/04/05 07:52:40;;;;;;;3.80;1.10;;;;;;;13.74;100.00;95732.91;5058688;28;20735;-86
2024/04/05 07:55:08;;;;;;;4.23;1.00;;;;;;;13.75;100.00;95726.56;5059701;28;20217;-87
2024/04/05 07:57:33;;;;;;;4.17;1.30;;;;;;;13.97;100.00;95727.53;5059033;28;20743;-86
2024/04/05 08:00:03;;;;;;;5.07;1.33;;;;;;;13.99;100.00;95735.25;5058288;28;20201;-87
2024/04/05 08:02:29;;;;;;;2.40;1.27;;;;;;;14.05;100.00;95726.38;5059009;28;20204;-86
2024/04/05 08:04:58;;;;;;;4.50;1.60;;;;;;;14.16;100.00;95721.03;5060633;28;20201;-85
2024/04/05 08:07:24;;;;;;;4.03;1.53;;;;;;;14.42;100.00;95717.78;5060378;28;20316;-85
2024/04/05 08:09:54;;;;;;;2.53;1.50;;;;;;;14.53;100.00;95730.19;5060949;28;20567;-86
2024/04/05 08:12:20;;;;;;;3.73;1.50;;;;;;;14.51;100.00;95729.63;5060947;28;20217;-86
2024/04/05 08:14:47;;;;;;;3.77;1.43;;;;;;;14.64;100.00;95725.03;5061511;28;20240;-86
2024/04/05 08:17:14;;;;;;;2.10;1.00;;;;;;;14.79;98.52;95738.56;5063308;28;20213;-87
2024/04/05 08:19:41;;;;;;;2.37;1.27;;;;;;;14.80;98.58;95729.53;5063644;28;20193;-86
2024/04/05 08:22:07;;;;;;;3.03;1.43;;;;;;;14.97;96.93;95736.47;5061365;28;20251;-86
2024/04/05 08:24:34;;;;;;;1.80;1.17;;;;;;;15.07;96.59;95735.81;5060916;28;20599;-87
2024/04/05 08:27:00;;;;;;;3.97;1.27;;;;;;;15.09;97.37;95739.84;5061934;28;20214;-86
2024/04/05 08:29:27;;;;;;;5.60;1.60;;;;;;;15.22;95.88;95736.84;5060891;28;20205;-86
2024/04/05 08:31:53;;;;;;;2.87;1.13;;;;;;;15.20;95.94;95722.19;5062838;28;20679;-86
2024/04/05 08:34:21;;;;;;;3.03;1.30;;;;;;;15.30;94.55;95717.03;5058752;28;20219;-86
2024/04/05 08:36:48;;;;;;;3.10;1.17;;;;;;;15.57;92.95;95714.50;5059012;28;20258;-87
2024/04/05 08:39:17;;;;;;;1.83;1.10;;;;;;;15.45;92.41;95713.81;5059174;28;20185;-87
2024/04/05 08:41:43;;;;;;;4.13;1.20;;;;;;;15.63;93.44;95716.19;5059831;28;20274;-86
2024/04/05 08:44:11;;;;;;;1.90;1.00;;;;;;;15.71;92.99;95715.72;5059598;28;20288;-86
2024/04/05 08:46:37;;;;;;;5.10;1.40;;;;;;;15.64;92.33;95729.19;5060763;28;20212;-86
2024/04/05 08:49:05;;;;;;;4.13;1.67;;;;;;;15.83;90.15;95719.06;5059967;28;20194;-86
2024/04/05 08:51:33;;;;;;;2.77;1.53;;;;;;;15.82;89.93;95728.09;5061149;28;20209;-86
2024/04/05 08:53:59;;;;;;;3.97;1.53;;;;;;;15.87;89.13;95730.78;5058116;28;20278;-86
2024/04/05 08:56:27;;;;;;;2.53;1.30;;;;;;;15.81;88.72;95729.94;5061248;28;20677;-86
2024/04/05 08:58:53;;;;;;;2.27;1.20;;;;;;;15.80;87.52;95736.31;5060157;28;20272;-86
2024/04/05 09:01:20;;;;;;;5.60;1.30;;;;;;;15.85;88.73;95725.75;5062195;28;20215;-86
2024/04/05 09:03:47;;;;;;;3.63;1.60;;;;;;;15.86;87.12;95727.34;5060876;28;20193;-86
2024/04/05 09:06:14;;;;;;;3.37;1.40;;;;;;;16.02;87.42;95728.31;5064566;28;20189;-85
2024/04/05 09:08:44;;;;;;;2.63;1.27;;;;;;;15.88;87.20;95730.56;5067880;28;20204;-86
2024/04/05 09:11:11;;;;;;;2.43;1.20;;;;;;;16.03;86.54;95716.66;5060075;28;20208;-86
2024/04/05 09:13:37;;;;;;;3.07;1.13;;;;;;;16.13;89.35;95715.94;5058373;28;20221;-86
2024/04/05 09:16:06;;;;;;;2.73;0.90;;;;;;;16.34;89.18;95707.94;5059786;28;20197;-86
2024/04/05 09:18:32;;;;;;;2.37;1.20;;;;;;;16.26;87.05;95704.94;5059447;28;20261;-87
2024/04/05 09:20:59;;;;;;;1.90;0.93;;;;;;;16.59;85.92;95705.53;5061443;28;20212;-87
2024/04/05 09:23:25;;;;;;;3.33;1.13;;;;;;;16.66;85.08;95712.50;5059090;28;20219;-86
2024/04/05 09:26:02;;;;;;;2.33;1.23;;;;;;;16.79;86.18;95707.56;5057796;28;20201;-87
2024/04/05 09:28:29;;;;;;;3.63;1.23;;;;;;;16.81;86.17;95712.63;5057388;28;20219;-86
2024/04/05 09:30:57;;;;;;;2.07;1.00;;;;;;;16.95;84.87;95711.13;5058412;28;20723;-86
2024/04/05 09:33:22;;;;;;;3.63;1.37;;;;;;;17.06;83.95;95707.50;5059340;28;20221;-87
2024/04/05 09:35:49;;;;;;;3.23;1.23;;;;;;;17.12;82.96;95709.13;5057850;28;20621;-87
2024/04/05 09:38:15;;;;;;;2.87;1.30;;;;;;;17.24;83.25;95704.44;5053035;28;20209;-85
2024/04/05 09:40:42;;;;;;;3.80;1.37;;;;;;;17.12;82.23;95699.28;5044303;28;20248;-84
2024/04/05 09:43:09;;;;;;;3.40;1.20;;;;;;;17.32;80.20;95692.50;5044917;28;20193;-86
2024/04/05 09:45:37;;;;;;;2.90;1.10;;;;;;;17.30;79.33;95687.41;5048147;28;20204;-86
2024/04/05 09:48:03;;;;;;;4.23;1.00;;;;;;;17.55;79.40;95695.56;5043262;28;20257;-86
2024/04/05 09:50:30;;;;;;;3.93;1.10;;;;;;;17.60;79.00;95692.91;5050430;28;20190;-86
2024/04/05 09:52:56;;;;;;;2.93;1.10;;;;;;;17.69;78.09;95688.69;5050015;28;20225;-86
2024/04/05 09:55:28;;;;;;;4.53;1.10;;;;;;;17.96;76.89;95685.88;5047708;28;20191;-86
2024/04/05 09:57:54;;;;;;;5.83;0.97;;;;;;;17.84;76.61;95679.97;5053379;28;20251;-86
2024/04/05 10:00:24;;;;;;;2.37;0.90;;;;;;;18.05;77.29;95676.28;5046738;28;20213;-86
2024/04/05 10:02:52;;;;;;;4.30;1.30;;;;;;;18.25;76.38;95671.00;5047854;28;20190;-86
2024/04/05 10:05:26;;;;;;;1.80;0.73;;;;;;;18.34;74.55;95665.94;5047785;28;20190;-86
2024/04/05 10:07:52;;;;;;;1.90;0.80;;;;;;;18.52;73.79;95660.13;5049522;28;20248;-87
2024/04/05 10:10:28;;;;;;;5.53;1.10;;;;;;;18.71;74.46;95647.84;5050838;28;20194;-86
2024/04/05 10:12:54;;;;;;;2.27;0.83;;;;;;;18.53;73.26;95656.38;5048710;28;20209;-87
2024/04/05 10:15:26;;;;;;;8.03;1.13;;;;;;;18.68;73.06;95645.72;5048055;28;20193;-85
2024/04/05 10:17:56;;;;;;;1.90;1.13;;;;;;;18.86;73.18;95641.69;5055902;28;20246;-85
2024/04/05 10:20:23;;;;;;;1.67;0.87;;;;;;;18.92;71.11;95630.75;5048008;28;20669;-86
2024/04/05 10:22:57;;;;;;;4.53;0.90;;;;;;;19.07;70.52;95619.22;5052104;28;20189;-85
2024/04/05 10:25:24;;;;;;;4.90;1.00;;;;;;;19.05;69.70;95624.03;5046619;28;20194;-86
2024/04/05 10:27:52;;;;;;;1.93;0.80;;;;;;;19.13;69.19;95616.28;5046277;28;20209;-86
2024/04/05 10:30:19;;;;;;;2.00;1.07;;;;;;;19.22;68.70;95628.00;5047101;28;20188;-86
2024/04/05 10:32:55;;;;;;;2.47;0.90;;;;;;;19.16;70.12;95620.28;5051094;28;20239;-85
2024/04/05 10:35:22;;;;;;;2.67;1.30;;;;;;;19.30;68.86;95614.09;5047896;28;20265;-86
2024/04/05 10:37:56;;;;;;;5.30;1.03;;;;;;;19.48;69.13;95606.59;5050826;28;20269;-86
2024/04/05 10:40:23;;;;;;;1.30;0.90;;;;;;;19.59;67.85;95602.78;5045879;28;20186;-87
2024/04/05 10:42:48;;;;;;;1.70;0.90;;;;;;;19.60;66.23;95599.06;5044605;28;20673;-87
2024/04/05 10:45:17;;;;;;;2.87;1.10;;;;;;;19.57;62.72;95594.25;5047338;28;20192;-86
2024/04/05 10:47:50;;;;;;;1.63;1.10;;;;;;;19.45;63.28;95602.59;5048288;28;20216;-86
2024/04/05 10:50:18;;;;;;;3.03;0.70;;;;;;;19.68;63.89;95606.47;5045544;28;20281;-87
2024/04/05 10:52:47;;;;;;;0.77;0.60;;;;;;;19.71;64.76;95596.06;5045388;28;20214;-85
2024/04/05 10:55:14;;;;;;;2.30;0.70;;;;;;;19.77;64.15;95605.63;5041146;28;20194;-85
2024/04/05 10:57:40;;;;;;;0.80;0.50;;;;;;;19.84;63.08;95603.47;5036479;28;20218;-87
2024/04/05 11:00:11;;;;;;;3.33;0.80;;;;;;;20.01;61.46;95600.41;5036245;28;20225;-87
2024/04/05 11:02:38;;;;;;;1.63;0.77;;;;;;;20.05;62.02;95606.03;5037458;28;20194;-86
2024/04/05 11:05:06;;;;;;;2.70;0.70;;;;;;;20.15;62.35;95608.63;5035354;28;20202;-87
2024/04/05 11:07:34;;;;;;;1.23;0.60;;;;;;;20.24;62.40;95610.44;5035883;28;20687;-86
2024/04/05 11:10:01;;;;;;;2.13;0.67;;;;;;;20.04;60.05;95615.91;5035747;28;20202;-85
2024/04/05 11:12:26;;;;;;;1.73;0.50;;;;;;;20.11;59.08;95612.94;5034996;28;20225;-86
2024/04/05 11:15:03;;;;;;;2.03;0.80;;;;;;;20.20;57.30;95619.28;5036667;28;20202;-87
2024/04/05 11:17:29;;;;;;;1.83;0.50;;;;;;;20.21;56.10;95616.31;5038451;28;20273;-87
2024/04/05 11:20:06;;;;;;;1.37;0.50;;;;;;;20.04;56.26;95615.91;5035701;28;20702;-87
2024/04/05 11:22:32;;;;;;;1.37;0.60;;;;;;;19.87;57.00;95623.50;5035722;28;20227;-86
2024/04/05 11:25:00;;;;;;;1.33;0.60;;;;;;;19.97;58.08;95629.59;5038839;28;20597;-87